Time;durP1;ratioP1;P1;durP2;ratioP2;P2;SDS_P1;SDS_P2;PMS_P1;PMS_P2;Temp;Humidity;BMP_temperature;BMP_pressure;BME280_temperature;BME280_humidity;BME280_pressure;Samples;Min_cycle;Max_cycle;Signal;HPM_P1;HPM_P2
2022/04/20 00:01:48;;;;;;;12.43;8.80;;;;;;;10.30;81.06;101633.38;10374806;28;20477;-73
2022/04/20 00:06:48;;;;;;;15.70;10.15;;;;;;;10.21;81.09;101634.41;10357760;28;20042;-73
2022/04/20 00:11:49;;;;;;;13.20;9.30;;;;;;;10.20;81.20;101624.63;10378431;28;20030;-72
2022/04/20 00:16:49;;;;;;;19.35;9.07;;;;;;;10.09;81.88;101625.03;10381737;28;20466;-72
2022/04/20 00:21:50;;;;;;;15.27;9.75;;;;;;;10.06;81.60;101628.09;10363575;28;20045;-72
2022/04/20 00:26:50;;;;;;;14.32;8.85;;;;;;;9.98;82.39;101631.66;10381127;28;20030;-73
2022/04/20 00:31:50;;;;;;;11.38;8.32;;;;;;;9.86;82.31;101639.34;10381647;28;20096;-72
2022/04/20 00:36:51;;;;;;;14.07;8.10;;;;;;;9.78;83.58;101636.63;10381523;28;20049;-73
2022/04/20 00:41:52;;;;;;;15.77;8.85;;;;;;;9.72;83.32;101631.94;10381498;28;20442;-72
2022/04/20 00:46:52;;;;;;;9.00;7.68;;;;;;;9.66;82.63;101641.56;10362688;28;20390;-72
2022/04/20 00:51:53;;;;;;;19.05;9.18;;;;;;;9.62;82.73;101650.22;10380477;28;20029;-72
2022/04/20 00:56:54;;;;;;;13.65;9.50;;;;;;;9.50;83.48;101649.72;10363236;28;20436;-72
2022/04/20 01:01:54;;;;;;;10.52;7.97;;;;;;;9.48;83.10;101649.91;10362845;28;20072;-73
2022/04/20 01:06:58;;;;;;;10.80;8.32;;;;;;;9.39;84.13;101648.25;10379838;28;20048;-72
2022/04/20 01:11:59;;;;;;;14.27;9.68;;;;;;;9.36;83.95;101653.97;10380212;28;20025;-72
2022/04/20 01:16:59;;;;;;;10.68;8.52;;;;;;;9.31;83.80;101657.19;10379599;28;20033;-72
2022/04/20 01:22:03;;;;;;;13.35;8.25;;;;;;;9.24;84.76;101652.63;10379400;28;20492;-71
2022/04/20 01:27:04;;;;;;;20.63;8.63;;;;;;;9.21;83.78;101644.88;10379656;28;20044;-72
2022/04/20 01:32:05;;;;;;;9.18;7.68;;;;;;;9.14;84.42;101644.72;10361775;28;20077;-72
2022/04/20 01:37:05;;;;;;;14.82;8.30;;;;;;;9.11;84.38;101642.34;10378024;28;20569;-72
2022/04/20 01:42:07;;;;;;;12.50;7.90;;;;;;;9.02;84.66;101638.78;10379743;28;20429;-72
2022/04/20 01:47:07;;;;;;;10.80;8.57;;;;;;;8.96;84.85;101636.75;10378303;28;20034;-72
2022/04/20 01:52:08;;;;;;;9.20;7.50;;;;;;;8.87;85.31;101642.34;10378176;28;20033;-72
2022/04/20 01:57:08;;;;;;;11.48;8.35;;;;;;;8.88;84.66;101642.19;10378491;28;20060;-72
2022/04/20 02:07:28;;;;;;;10.52;8.00;;;;;;;8.76;84.69;101640.81;10377114;28;20038;-72
2022/04/20 02:12:29;;;;;;;9.43;7.50;;;;;;;8.71;85.30;101648.56;10376852;28;20034;-72
2022/04/20 02:17:30;;;;;;;15.75;8.32;;;;;;;8.63;85.13;101640.47;10345697;28;20116;-72
2022/04/20 02:22:30;;;;;;;12.40;8.52;;;;;;;8.60;85.11;101642.47;10378746;28;20030;-72
2022/04/20 02:27:31;;;;;;;16.33;8.38;;;;;;;8.55;85.37;101639.47;10377301;28;20108;-72
2022/04/20 02:32:31;;;;;;;7.85;6.03;;;;;;;8.47;85.10;101638.59;10359670;28;20116;-72
2022/04/20 02:37:32;;;;;;;11.75;7.43;;;;;;;8.46;85.11;101640.44;10377315;28;20053;-72
2022/04/20 02:42:32;;;;;;;7.38;6.68;;;;;;;8.41;84.58;101633.84;10375152;28;20431;-72
2022/04/20 02:47:33;;;;;;;11.38;8.68;;;;;;;8.39;84.09;101639.41;10374362;28;20041;-73
2022/04/20 02:52:33;;;;;;;11.02;7.63;;;;;;;8.41;80.81;101641.94;10358446;28;20026;-72
2022/04/20 02:57:34;;;;;;;12.23;8.35;;;;;;;8.25;79.86;101653.50;10375819;28;20474;-72
2022/04/20 03:02:34;;;;;;;18.15;7.40;;;;;;;8.19;82.92;101651.47;10374957;28;20172;-72
2022/04/20 03:07:34;;;;;;;11.50;8.40;;;;;;;8.18;82.22;101652.47;10359233;28;20037;-73
2022/04/20 03:12:35;;;;;;;12.23;7.28;;;;;;;8.07;81.85;101649.06;10376532;28;20026;-72
2022/04/20 03:17:35;;;;;;;12.43;7.30;;;;;;;8.03;80.60;101652.25;10375435;28;20541;-71
2022/04/20 03:22:36;;;;;;;7.80;6.47;;;;;;;7.87;83.88;101645.75;10357842;28;20064;-72
2022/04/20 03:27:36;;;;;;;8.98;6.30;;;;;;;7.85;85.07;101652.34;10374771;28;20060;-72
2022/04/20 03:32:36;;;;;;;5.93;5.53;;;;;;;7.82;84.96;101660.75;10374654;28;20041;-72
2022/04/20 03:37:37;;;;;;;12.65;8.65;;;;;;;7.82;82.91;101658.91;10357599;28;20049;-72
2022/04/20 03:42:37;;;;;;;10.00;7.28;;;;;;;7.72;84.70;101662.69;10373580;28;20477;-72
2022/04/20 03:47:38;;;;;;;9.13;7.72;;;;;;;7.65;84.75;101667.88;10379351;28;20041;-71
2022/04/20 03:52:38;;;;;;;10.13;7.57;;;;;;;7.68;83.60;101670.28;10382630;28;20089;-72
2022/04/20 03:57:39;;;;;;;8.48;6.32;;;;;;;7.60;84.07;101671.06;10383145;28;20096;-72
2022/04/20 04:02:39;;;;;;;9.68;6.47;;;;;;;7.58;83.81;101666.84;10382829;28;20037;-72
2022/04/20 04:07:41;;;;;;;12.63;7.25;;;;;;;7.51;83.12;101676.56;10349414;28;20061;-72
2022/04/20 04:12:41;;;;;;;8.95;7.13;;;;;;;7.46;83.28;101664.41;10364336;28;20137;-72
2022/04/20 04:17:42;;;;;;;13.93;6.45;;;;;;;7.37;84.47;101670.75;10381731;28;20391;-72
2022/04/20 04:22:42;;;;;;;7.72;6.65;;;;;;;7.38;84.13;101677.84;10363385;28;20036;-71
2022/04/20 04:27:43;;;;;;;10.20;6.05;;;;;;;7.41;83.29;101680.22;10381341;28;20050;-71
2022/04/20 04:32:43;;;;;;;8.40;6.80;;;;;;;7.36;82.87;101687.06;10380934;28;20038;-73
2022/04/20 04:37:44;;;;;;;6.78;6.10;;;;;;;7.35;82.88;101688.09;10380211;28;20393;-73
2022/04/20 04:42:44;;;;;;;8.88;6.65;;;;;;;7.37;82.47;101694.16;10379551;28;20038;-73
2022/04/20 04:53:04;;;;;;;9.35;6.85;;;;;;;7.38;81.73;101701.25;10378315;28;20041;-66
2022/04/20 04:58:04;;;;;;;10.32;6.75;;;;;;;7.41;81.21;101703.63;10376649;28;20397;-72
2022/04/20 05:03:05;;;;;;;8.90;6.88;;;;;;;7.44;80.77;101711.41;10376493;28;20103;-73
2022/04/20 05:08:05;;;;;;;13.65;7.15;;;;;;;7.44;80.55;101711.41;10359217;28;20046;-72
2022/04/20 05:13:06;;;;;;;7.05;5.32;;;;;;;7.50;80.69;101718.84;10375861;28;20168;-72
2022/04/20 05:18:06;;;;;;;9.02;6.38;;;;;;;7.54;80.22;101714.00;10360068;28;20056;-72
2022/04/20 05:23:08;;;;;;;8.65;6.35;;;;;;;7.59;80.43;101727.81;10359207;28;20125;-72
2022/04/20 05:28:08;;;;;;;7.82;5.43;;;;;;;7.60;79.98;101725.00;10376694;28;20034;-72
2022/04/20 05:33:08;;;;;;;10.40;6.32;;;;;;;7.69;79.55;101739.38;10358984;28;20038;-72
2022/04/20 05:43:28;;;;;;;11.50;6.03;;;;;;;8.25;77.57;101729.06;10377761;28;20057;-72
2022/04/20 05:48:28;;;;;;;14.77;7.45;;;;;;;9.71;73.48;101728.44;10378400;28;20034;-73
2022/04/20 05:53:29;;;;;;;8.55;5.85;;;;;;;10.76;67.74;101722.84;10377196;28;20068;-73
2022/04/20 05:58:29;;;;;;;5.68;4.70;;;;;;;11.47;64.34;101722.66;10378956;28;20034;-73
2022/04/20 06:03:30;;;;;;;10.50;5.68;;;;;;;12.27;61.67;101731.00;10377373;28;20034;-73
2022/04/20 06:08:30;;;;;;;4.20;3.90;;;;;;;12.63;59.31;101727.47;10359265;28;20486;-73
2022/04/20 06:13:32;;;;;;;5.35;4.85;;;;;;;12.58;58.37;101729.94;10359633;28;20042;-73
2022/04/20 06:18:33;;;;;;;7.95;4.28;;;;;;;12.78;57.92;101730.16;10376983;28;20066;-73
2022/04/20 06:23:33;;;;;;;7.20;4.80;;;;;;;12.95;56.97;101739.75;10358874;28;20506;-73
2022/04/20 06:28:34;;;;;;;7.60;5.63;;;;;;;13.39;55.80;101738.75;10375683;28;20065;-73
2022/04/20 06:33:34;;;;;;;6.80;4.38;;;;;;;13.68;54.02;101732.28;10376771;28;20394;-73
2022/04/20 06:38:34;;;;;;;7.20;5.75;;;;;;;13.98;54.09;101728.53;10376852;28;20053;-73
2022/04/20 06:43:35;;;;;;;10.48;4.88;;;;;;;14.47;53.31;101736.53;10358892;28;20462;-73
2022/04/20 06:48:36;;;;;;;9.75;5.57;;;;;;;15.23;50.72;101741.00;10358441;28;20037;-73
2022/04/20 06:58:55;;;;;;;6.47;5.40;;;;;;;15.73;49.65;101733.25;10375720;28;20037;-73
2022/04/20 07:03:56;;;;;;;3.92;3.63;;;;;;;16.22;46.96;101724.56;10374894;28;20357;-73
2022/04/20 07:08:57;;;;;;;7.53;5.25;;;;;;;16.14;47.18;101734.88;10375018;28;20036;-73
2022/04/20 07:13:58;;;;;;;5.22;4.65;;;;;;;16.85;46.43;101734.03;10373558;28;20489;-73
2022/04/20 07:18:58;;;;;;;8.85;4.88;;;;;;;16.89;45.13;101736.09;10375533;28;20124;-74
2022/04/20 07:23:58;;;;;;;8.18;5.68;;;;;;;17.40;44.30;101743.31;10374430;28;20382;-74
2022/04/20 07:28:59;;;;;;;8.18;4.38;;;;;;;18.05;43.63;101742.97;10356023;28;20042;-74
2022/04/20 07:33:59;;;;;;;4.57;4.18;;;;;;;18.48;41.28;101735.78;10373660;28;20038;-74
2022/04/20 07:39:00;;;;;;;4.97;4.57;;;;;;;18.39;41.08;101740.72;10374143;28;20030;-74
2022/04/20 07:44:00;;;;;;;4.53;3.10;;;;;;;18.68;39.58;101739.09;10374932;28;20061;-74
2022/04/20 07:50:18;;;;;;;5.78;4.90;;;;;;;19.08;42.22;101748.69;10374007;28;20042;-74
2022/04/20 07:54:22;;;;;;;7.47;3.75;;;;;;;19.29;38.60;101738.03;10374218;28;20049;-74
2022/04/20 07:59:22;;;;;;;7.93;3.47;;;;;;;19.51;37.92;101740.22;10373919;28;20350;-73
2022/04/20 08:04:22;;;;;;;6.65;4.38;;;;;;;19.34;37.23;101737.34;10373047;28;20046;-73
2022/04/20 08:09:24;;;;;;;5.25;3.40;;;;;;;19.20;36.88;101739.44;10372821;28;20034;-74
2022/04/20 08:14:24;;;;;;;6.03;3.75;;;;;;;19.96;37.43;101734.19;10372557;28;20363;-74
2022/04/20 08:19:25;;;;;;;7.10;3.60;;;;;;;20.40;34.70;101745.59;10373731;28;20037;-73
2022/04/20 08:24:26;;;;;;;5.10;3.80;;;;;;;20.06;35.18;101744.56;10376106;28;20041;-74
2022/04/20 08:29:26;;;;;;;13.10;3.90;;;;;;;20.30;35.39;101739.88;10373561;28;20030;-74
2022/04/20 08:34:27;;;;;;;4.30;3.50;;;;;;;20.52;34.15;101748.38;10362053;28;20179;-74
2022/04/20 08:39:27;;;;;;;6.25;3.78;;;;;;;20.37;34.04;101746.91;10381291;28;20073;-74
2022/04/20 08:44:28;;;;;;;9.13;3.85;;;;;;;20.44;33.55;101741.28;10363119;28;20037;-74
2022/04/20 08:49:28;;;;;;;5.10;3.60;;;;;;;20.16;33.91;101744.78;10346427;28;20061;-74
2022/04/20 08:54:29;;;;;;;10.75;3.85;;;;;;;20.75;33.45;101747.47;10379263;28;20108;-74
2022/04/20 08:59:29;;;;;;;2.72;2.53;;;;;;;20.46;32.82;101750.13;10380054;28;20029;-74
2022/04/20 09:04:29;;;;;;;4.00;3.67;;;;;;;20.34;33.39;101746.56;10377987;28;20057;-74
2022/04/20 09:09:30;;;;;;;2.95;2.67;;;;;;;21.18;30.76;101749.63;10380109;28;20033;-74
2022/04/20 09:14:30;;;;;;;4.20;3.83;;;;;;;20.82;32.20;101745.38;10379295;28;20034;-74
2022/04/20 09:19:31;;;;;;;4.35;3.70;;;;;;;20.92;31.92;101737.31;10378613;28;20476;-74
2022/04/20 09:24:31;;;;;;;2.83;2.63;;;;;;;20.82;31.89;101728.88;10378249;28;20038;-74
2022/04/20 09:29:31;;;;;;;3.92;3.35;;;;;;;20.80;32.68;101729.09;10379377;28;20034;-74
2022/04/20 09:34:53;;;;;;;4.95;3.42;;;;;;;21.45;31.13;101733.34;10361057;28;20394;-74
2022/04/20 09:39:54;;;;;;;3.13;2.92;;;;;;;21.14;30.75;101730.03;10364246;28;20112;-74
2022/04/20 09:45:01;;;;;;;4.07;2.90;;;;;;;20.73;30.90;101730.34;10377115;28;20053;-74
2022/04/20 09:50:02;;;;;;;4.93;3.00;;;;;;;20.90;30.55;101722.97;10361429;28;20100;-74
2022/04/20 09:55:05;;;;;;;8.35;2.55;;;;;;;20.97;30.88;101722.81;10359367;28;20435;-74
2022/04/20 10:00:09;;;;;;;3.00;2.80;;;;;;;21.13;30.56;101709.09;10378868;28;20046;-74
2022/04/20 10:05:10;;;;;;;4.07;2.85;;;;;;;21.31;30.26;101712.66;10358894;28;20061;-74
2022/04/20 10:10:10;;;;;;;2.90;2.60;;;;;;;21.37;30.08;101703.44;10376811;28;20080;-74
2022/04/20 10:20:30;;;;;;;2.78;2.40;;;;;;;22.37;29.17;101689.75;10376827;28;20041;-75
2022/04/20 10:25:30;;;;;;;4.43;2.83;;;;;;;22.88;27.44;101699.44;10376003;28;20034;-74
2022/04/20 10:30:42;;;;;;;2.35;2.17;;;;;;;22.22;28.40;101690.41;10376295;28;20034;-74
2022/04/20 10:36:03;;;;;;;2.78;2.58;;;;;;;22.58;27.85;101693.59;10359867;28;20056;-74
2022/04/20 10:41:11;;;;;;;1.70;1.60;;;;;;;22.42;27.78;101687.88;10374286;28;20034;-74
2022/04/20 10:46:18;;;;;;;3.97;2.40;;;;;;;22.23;27.04;101676.34;10375817;28;20128;-74
2022/04/20 10:51:39;;;;;;;6.13;2.85;;;;;;;22.33;27.98;101663.75;10374502;28;20386;-74
2022/04/20 10:56:39;;;;;;;3.72;2.35;;;;;;;22.47;27.76;101659.53;10375665;28;20041;-74
2022/04/20 11:02:02;;;;;;;2.88;2.55;;;;;;;23.01;27.26;101656.78;10340790;28;20050;-74
2022/04/20 11:07:03;;;;;;;2.08;1.98;;;;;;;22.26;27.25;101656.50;10374784;28;20093;-74
2022/04/20 11:22:45;;;;;;;1.92;1.80;;;;;;;21.93;28.63;101643.66;10374165;28;20072;-74
2022/04/20 11:27:45;;;;;;;6.30;2.55;;;;;;;21.73;28.41;101646.97;10374300;28;20401;-74
2022/04/20 11:32:46;;;;;;;2.50;2.30;;;;;;;21.44;29.16;101626.97;10357868;28;20162;-74
2022/04/20 11:37:58;;;;;;;3.05;2.78;;;;;;;21.66;29.25;101629.75;10356709;28;20403;-74
2022/04/20 11:43:05;;;;;;;2.67;2.47;;;;;;;21.47;29.76;101620.94;10357033;28;20029;-74
2022/04/20 11:48:06;;;;;;;2.83;2.53;;;;;;;22.44;28.80;101626.91;10357074;28;20378;-74
2022/04/20 11:53:07;;;;;;;7.18;3.15;;;;;;;22.72;29.49;101601.81;10373831;28;20034;-74
2022/04/20 11:58:14;;;;;;;4.72;3.08;;;;;;;22.82;28.68;101606.59;10356900;28;20382;-74
2022/04/20 12:03:14;;;;;;;5.82;3.33;;;;;;;22.45;28.79;101600.97;10373976;28;20084;-74
2022/04/20 12:08:14;;;;;;;3.22;2.95;;;;;;;22.31;28.56;101589.53;10378980;28;20096;-74
2022/04/20 12:13:15;;;;;;;5.35;2.70;;;;;;;22.15;29.49;101601.44;10381300;28;20041;-74
2022/04/20 12:18:16;;;;;;;3.75;3.45;;;;;;;21.49;30.77;101587.63;10382057;28;20045;-74
2022/04/20 12:23:17;;;;;;;3.15;2.88;;;;;;;21.52;30.48;101576.94;10382004;28;20069;-74
2022/04/20 12:34:02;;;;;;;4.32;3.28;;;;;;;21.82;31.39;101573.75;10284086;28;20069;-74
2022/04/20 12:39:02;;;;;;;5.85;3.40;;;;;;;21.89;29.90;101573.56;10381544;28;20037;-74
2022/04/20 12:44:34;;;;;;;2.78;2.58;;;;;;;21.50;30.98;101573.59;10379849;28;20069;-74
2022/04/20 12:49:34;;;;;;;2.42;2.22;;;;;;;21.28;30.54;101564.41;10381044;28;20454;-74
2022/04/20 12:54:35;;;;;;;6.80;2.97;;;;;;;20.86;31.07;101567.63;10363168;28;20077;-74
2022/04/20 13:04:55;;;;;;;2.92;2.67;;;;;;;21.17;31.32;101540.56;10379037;28;20038;-74
2022/04/20 13:09:55;;;;;;;3.47;3.00;;;;;;;21.29;32.00;101522.84;10378417;28;20450;-74
2022/04/20 13:14:55;;;;;;;3.65;2.85;;;;;;;20.98;32.42;101529.81;10379929;28;20053;-75
2022/04/20 13:19:56;;;;;;;2.80;2.60;;;;;;;21.69;32.22;101515.41;10361514;28;20041;-74
2022/04/20 13:30:15;;;;;;;3.70;2.78;;;;;;;22.32;31.04;101494.59;10378952;28;20037;-74
2022/04/20 13:35:16;;;;;;;3.38;3.15;;;;;;;21.39;32.90;101500.16;10377185;28;20046;-74
2022/04/20 13:40:16;;;;;;;6.72;3.50;;;;;;;21.85;33.67;101502.63;10345188;28;20494;-74
2022/04/20 13:45:17;;;;;;;5.05;2.70;;;;;;;21.92;31.99;101498.59;10378786;28;20388;-75
2022/04/20 13:50:17;;;;;;;4.05;3.15;;;;;;;20.59;34.12;101506.91;10377212;28;20120;-74
2022/04/20 13:55:17;;;;;;;2.78;2.58;;;;;;;20.82;33.63;101511.41;10376687;28;20042;-74
2022/04/20 14:00:18;;;;;;;4.10;2.83;;;;;;;20.41;34.04;101503.25;10378293;28;20038;-74
2022/04/20 14:05:18;;;;;;;2.60;2.42;;;;;;;20.28;34.34;101497.25;10377443;28;20410;-74
2022/04/20 14:10:19;;;;;;;3.63;3.28;;;;;;;20.30;34.71;101482.16;10377849;28;20469;-74
2022/04/20 14:15:19;;;;;;;3.10;2.90;;;;;;;20.10;34.25;101501.91;10378776;28;20037;-74
2022/04/20 14:20:19;;;;;;;2.95;2.72;;;;;;;20.06;34.84;101483.38;10377491;28;20034;-74
2022/04/20 14:35:58;;;;;;;4.00;3.60;;;;;;;19.81;35.31;101478.22;10375087;28;20081;-74
2022/04/20 14:40:58;;;;;;;3.08;2.38;;;;;;;20.05;34.63;101462.47;10376198;28;20042;-74
2022/04/20 14:45:59;;;;;;;3.00;2.80;;;;;;;19.76;34.76;101472.63;10358454;28;20084;-75
2022/04/20 14:50:59;;;;;;;3.08;2.88;;;;;;;19.31;36.39;101465.09;10374747;28;20111;-74
2022/04/20 14:56:00;;;;;;;3.00;2.80;;;;;;;19.06;36.93;101466.19;10376195;28;20037;-74
2022/04/20 15:01:00;;;;;;;3.35;2.97;;;;;;;18.83;37.46;101457.97;10375485;28;20466;-74
2022/04/20 15:06:01;;;;;;;3.53;3.28;;;;;;;18.73;37.24;101453.94;10373865;28;20030;-74
2022/04/20 15:11:01;;;;;;;3.30;3.00;;;;;;;18.78;37.74;101447.72;10375214;28;20069;-74
2022/04/20 15:16:02;;;;;;;4.90;3.55;;;;;;;18.58;38.50;101448.03;10374287;28;20034;-74
2022/04/20 15:21:03;;;;;;;3.92;3.63;;;;;;;18.11;39.09;101440.56;10375630;28;20080;-74
2022/04/20 15:26:03;;;;;;;4.30;3.90;;;;;;;17.87;40.31;101449.78;10373959;28;20445;-73
2022/04/20 15:31:05;;;;;;;4.40;3.83;;;;;;;17.69;40.94;101436.94;10356512;28;20038;-74
2022/04/20 15:36:06;;;;;;;5.35;4.82;;;;;;;17.53;41.60;101445.78;10373964;28;20085;-74
2022/04/20 15:41:06;;;;;;;4.63;4.22;;;;;;;17.37;41.84;101442.59;10377238;28;20110;-73
2022/04/20 15:46:07;;;;;;;4.63;2.92;;;;;;;17.15;42.01;101452.34;10367810;28;20038;-73
2022/04/20 15:51:07;;;;;;;6.47;3.20;;;;;;;16.83;42.69;101452.47;10382034;28;20022;-73
2022/04/20 16:01:26;;;;;;;3.13;2.83;;;;;;;16.67;42.61;101447.56;10381738;28;20042;-73
2022/04/20 16:06:27;;;;;;;4.38;3.47;;;;;;;16.77;42.66;101430.66;10364426;28;20382;-74
2022/04/20 16:11:27;;;;;;;6.05;4.05;;;;;;;16.51;43.36;101438.84;10382221;28;20030;-73
2022/04/20 16:16:30;;;;;;;3.80;3.50;;;;;;;16.43;43.06;101436.41;10349202;28;20541;-73
2022/04/20 16:21:30;;;;;;;3.40;2.75;;;;;;;16.50;42.11;101430.88;10381718;28;20034;-73
2022/04/20 16:26:33;;;;;;;3.20;2.78;;;;;;;16.41;42.18;101426.75;10364986;28;20477;-74
2022/04/20 16:31:33;;;;;;;4.15;3.85;;;;;;;16.47;42.60;101414.94;10380178;28;20026;-73
2022/04/20 16:36:33;;;;;;;9.45;3.45;;;;;;;16.55;42.06;101433.75;10340737;28;20062;-73
2022/04/20 16:41:37;;;;;;;3.08;2.88;;;;;;;16.47;42.67;101426.69;10322437;28;20042;-73
2022/04/20 16:46:42;;;;;;;7.93;3.38;;;;;;;16.42;42.67;101429.25;10339671;28;20038;-73
2022/04/20 16:51:42;;;;;;;3.88;3.17;;;;;;;16.38;43.48;101419.00;10340705;28;20471;-73
2022/04/20 16:56:43;;;;;;;2.97;2.40;;;;;;;16.29;42.75;101412.97;10340132;28;20046;-75
2022/04/20 17:01:44;;;;;;;10.30;4.15;;;;;;;16.10;43.83;101411.22;10323488;28;20069;-74
2022/04/20 17:06:44;;;;;;;5.60;3.22;;;;;;;16.05;44.34;101403.72;10321806;28;20054;-74
2022/04/20 17:11:46;;;;;;;3.40;3.20;;;;;;;15.99;44.22;101419.09;10321748;28;20037;-73
2022/04/20 17:16:47;;;;;;;5.47;4.03;;;;;;;16.01;44.75;101416.94;10339654;28;20035;-73
2022/04/20 17:27:06;;;;;;;3.47;3.17;;;;;;;15.79;45.99;101423.81;10323729;28;20042;-73
2022/04/20 17:32:07;;;;;;;6.65;2.45;;;;;;;15.73;46.06;101416.50;10338607;28;20474;-74
2022/04/20 17:37:08;;;;;;;3.90;3.58;;;;;;;15.69;46.58;101424.31;10351373;28;20125;-74
2022/04/20 17:42:09;;;;;;;4.47;2.60;;;;;;;15.61;46.55;101420.97;10379943;28;20042;-74
2022/04/20 17:47:09;;;;;;;5.75;2.90;;;;;;;15.48;47.15;101422.72;10361030;28;20101;-73
2022/04/20 17:52:09;;;;;;;9.80;3.40;;;;;;;15.36;47.06;101421.72;10376321;28;20045;-73
2022/04/20 17:57:10;;;;;;;5.50;3.30;;;;;;;15.14;47.81;101412.16;10377523;28;20038;-73
2022/04/20 18:02:12;;;;;;;4.07;2.72;;;;;;;15.14;47.59;101412.16;10377977;28;20069;-73
2022/04/20 18:07:12;;;;;;;2.85;2.53;;;;;;;14.99;47.93;101415.94;10377518;28;20088;-74
2022/04/20 18:12:13;;;;;;;2.65;2.45;;;;;;;14.79;49.03;101423.34;10379425;28;20060;-73
2022/04/20 18:17:13;;;;;;;2.55;2.35;;;;;;;14.71;48.87;101420.84;10378071;28;20408;-73
2022/04/20 18:22:14;;;;;;;3.63;2.95;;;;;;;14.58;49.54;101432.59;10375889;28;20049;-73
2022/04/20 18:27:14;;;;;;;4.53;2.58;;;;;;;14.48;50.39;101432.16;10376965;28;20073;-74
2022/04/20 18:32:15;;;;;;;1.90;1.80;;;;;;;14.31;50.68;101434.47;10376713;28;20393;-74
2022/04/20 18:37:15;;;;;;;4.07;2.30;;;;;;;14.18;50.64;101436.13;10370805;28;20052;-73
2022/04/20 18:42:16;;;;;;;5.00;3.15;;;;;;;14.06;50.56;101431.50;10376994;28;20037;-73
2022/04/20 18:47:16;;;;;;;3.20;3.00;;;;;;;13.84;52.53;101437.13;10376948;28;20494;-73
2022/04/20 18:52:17;;;;;;;3.63;2.58;;;;;;;13.77;51.34;101449.88;10375106;28;20391;-73
2022/04/20 19:02:36;;;;;;;5.28;2.88;;;;;;;13.45;53.66;101451.44;10375042;28;20061;-73
2022/04/20 19:07:37;;;;;;;11.48;4.50;;;;;;;13.26;55.57;101451.16;10357923;28;20054;-73
2022/04/20 19:12:37;;;;;;;12.20;3.20;;;;;;;13.30;54.03;101450.75;10357776;28;20033;-73
2022/04/20 19:17:39;;;;;;;4.03;3.72;;;;;;;13.23;54.68;101448.81;10374167;28;20124;-73
2022/04/20 19:22:40;;;;;;;5.05;4.28;;;;;;;13.08;56.90;101463.56;10375726;28;20462;-73
2022/04/20 19:27:44;;;;;;;4.03;3.70;;;;;;;12.99;57.53;101463.75;10376470;28;20113;-73
2022/04/20 19:32:47;;;;;;;5.25;4.05;;;;;;;13.01;54.31;101468.97;10375108;28;20041;-73
2022/04/20 19:37:47;;;;;;;13.32;3.85;;;;;;;12.93;53.90;101485.47;10373605;28;20176;-73
2022/04/20 19:42:48;;;;;;;3.72;3.42;;;;;;;12.74;57.72;101482.38;10374691;28;20125;-73
2022/04/20 19:47:48;;;;;;;5.28;4.70;;;;;;;12.68;57.50;101483.19;10376153;28;20164;-73
2022/04/20 19:52:48;;;;;;;4.78;3.95;;;;;;;12.57;59.61;101475.53;10373959;28;20045;-73
2022/04/20 19:57:49;;;;;;;4.00;3.53;;;;;;;12.49;58.97;101481.13;10374495;28;20149;-73
2022/04/20 20:02:50;;;;;;;4.85;4.45;;;;;;;12.33;60.85;101490.41;10374996;28;20041;-73
2022/04/20 20:07:50;;;;;;;5.32;4.45;;;;;;;12.25;60.94;101499.53;10374255;28;20092;-73
2022/04/20 20:12:52;;;;;;;4.13;3.83;;;;;;;12.09;64.63;101497.91;10356552;28;20068;-73
2022/04/20 20:17:53;;;;;;;6.25;5.32;;;;;;;11.97;68.69;101504.03;10374993;28;20041;-73
2022/04/20 20:33:31;;;;;;;9.25;5.95;;;;;;;11.75;69.64;101489.56;10365724;28;20026;-73
2022/04/20 20:38:31;;;;;;;8.38;4.93;;;;;;;11.66;75.02;101485.25;10383200;28;20517;-73
2022/04/20 20:43:32;;;;;;;8.35;6.18;;;;;;;11.63;76.68;101494.63;10381799;28;20053;-73
2022/04/20 20:53:51;;;;;;;12.82;9.65;;;;;;;11.54;79.19;101491.16;10380955;28;20034;-72
2022/04/20 20:58:52;;;;;;;9.07;7.82;;;;;;;11.52;77.80;101501.38;10362952;28;20038;-74
2022/04/20 21:03:52;;;;;;;13.52;7.97;;;;;;;11.37;82.16;101492.41;10380215;28;20056;-74
2022/04/20 21:08:53;;;;;;;17.45;7.60;;;;;;;11.31;84.73;101495.88;10362582;28;20068;-74
2022/04/20 21:13:53;;;;;;;11.15;10.05;;;;;;;11.24;84.29;101492.25;10380110;28;20030;-74
2022/04/20 21:18:53;;;;;;;13.02;8.10;;;;;;;11.17;85.58;101492.16;10379869;28;20092;-74
2022/04/20 21:23:55;;;;;;;9.48;8.38;;;;;;;11.21;82.23;101487.19;10363210;28;20136;-73
2022/04/20 21:28:55;;;;;;;15.52;8.77;;;;;;;11.15;80.48;101488.78;10379815;28;20068;-73
2022/04/20 21:33:57;;;;;;;13.57;9.35;;;;;;;11.07;80.37;101491.56;10379018;28;20077;-73
2022/04/20 21:38:58;;;;;;;15.18;8.98;;;;;;;10.99;81.27;101494.38;10380458;28;20037;-73
2022/04/20 21:43:58;;;;;;;15.68;9.98;;;;;;;10.99;81.16;101499.78;10362546;28;20029;-73
2022/04/20 21:48:59;;;;;;;12.00;10.82;;;;;;;10.88;82.96;101487.53;10378676;28;20088;-73
2022/04/20 21:53:59;;;;;;;10.77;9.35;;;;;;;10.85;81.02;101496.06;10377773;28;20141;-73
2022/04/20 21:59:00;;;;;;;12.65;9.88;;;;;;;10.79;82.09;101486.78;10378327;28;20041;-73
2022/04/20 22:09:25;;;;;;;12.60;9.63;;;;;;;10.61;88.29;101489.81;10376472;28;20029;-73
2022/04/20 22:14:27;;;;;;;11.63;10.27;;;;;;;10.63;86.76;101486.94;10378402;28;20129;-73
2022/04/20 22:19:27;;;;;;;19.50;9.88;;;;;;;10.61;86.61;101497.13;10359384;28;20061;-73
2022/04/20 22:24:28;;;;;;;11.57;8.93;;;;;;;10.63;85.86;101495.06;10376703;28;20061;-73
2022/04/20 22:29:31;;;;;;;11.40;8.65;;;;;;;10.61;86.23;101500.66;10377410;28;20037;-72
2022/04/20 22:34:31;;;;;;;10.35;8.13;;;;;;;10.69;84.02;101499.75;10375385;28;20046;-73
2022/04/20 22:39:32;;;;;;;14.05;8.88;;;;;;;10.61;85.38;101503.38;10376607;28;20046;-73
2022/04/20 22:44:32;;;;;;;24.05;8.52;;;;;;;10.56;85.54;101496.81;10376443;28;20088;-73
2022/04/20 22:49:33;;;;;;;11.57;8.85;;;;;;;10.56;84.93;101491.38;10358799;28;20386;-73
2022/04/20 22:54:35;;;;;;;10.15;8.27;;;;;;;10.53;84.95;101497.16;10377335;28;20044;-72
2022/04/20 22:59:35;;;;;;;8.30;7.47;;;;;;;10.54;84.44;101507.84;10375940;28;20466;-73
2022/04/20 23:04:36;;;;;;;9.40;7.65;;;;;;;10.42;85.53;101499.28;10375892;28;20069;-73
2022/04/20 23:09:36;;;;;;;13.30;8.70;;;;;;;10.41;85.89;101491.38;10375510;28;20440;-72
2022/04/20 23:14:37;;;;;;;16.65;10.15;;;;;;;10.37;84.84;101490.03;10375937;28;20121;-72
2022/04/20 23:19:37;;;;;;;13.15;9.18;;;;;;;10.35;84.58;101492.09;10358144;28;20041;-72
2022/04/20 23:29:59;;;;;;;12.82;9.60;;;;;;;10.15;85.73;101489.84;10372821;28;20116;-72
2022/04/20 23:34:59;;;;;;;11.48;9.23;;;;;;;10.15;85.91;101489.00;10374476;28;20107;-73
2022/04/20 23:40:00;;;;;;;13.57;8.32;;;;;;;10.09;85.73;101487.00;10375769;28;20026;-72
2022/04/20 23:45:00;;;;;;;9.25;8.35;;;;;;;10.05;85.30;101483.84;10357903;28;20037;-73
2022/04/20 23:55:20;;;;;;;8.93;8.02;;;;;;;9.89;86.79;101479.38;10374744;28;20382;-73
